Milton, Delaware
Current Conditions -  °F | °C
As of 2:54 AM on Friday 24 Oct 2014 (Local Time) from KGED Reporting Station
Overcast Overcast  
Wind Chill: 53°   Ceiling: 4800
Heat Index: 53°   Visibility: 10mi
Dew Point: 45°   Wind: 3mph
Humidity: 74%   Direction: 290°WNW
Pressure: 29.85"   Gusts: NA
Location:  38.78°N, 75.31°W
Report Text: KGED 240654Z AUTO 29003KT 10SM OVC048 12/07 A2985 RMK AO2 SLP107 T01170072
Loading
Personal Weather Stations






























Interactive Weather Map
Tropical Storm Tracking
New forecast layout! Learn more

10-Day Weather Forecast

Advertisements
Track Severe Weather on mobile